sensor_id;sensor_type;location;lat;lon;timestamp;temperature;humidity
65074;DHT22;52218;51.224;-2.328;2022-10-22T00:01:29;14.20;99.90
65074;DHT22;52218;51.224;-2.328;2022-10-22T00:05:11;14.10;99.90
65074;DHT22;52218;51.224;-2.328;2022-10-22T00:08:53;14.00;99.90
65074;DHT22;52218;51.224;-2.328;2022-10-22T00:12:35;14.00;99.90
65074;DHT22;52218;51.224;-2.328;2022-10-22T00:16:17;13.90;99.90
65074;DHT22;52218;51.224;-2.328;2022-10-22T00:19:59;13.90;99.90
65074;DHT22;52218;51.224;-2.328;2022-10-22T00:23:42;14.00;99.90
65074;DHT22;52218;51.224;-2.328;2022-10-22T00:27:24;13.90;99.90
65074;DHT22;52218;51.224;-2.328;2022-10-22T00:31:06;13.90;99.90
65074;DHT22;52218;51.224;-2.328;2022-10-22T00:34:48;13.90;99.90
65074;DHT22;52218;51.224;-2.328;2022-10-22T00:38:30;13.90;99.90
65074;DHT22;52218;51.224;-2.328;2022-10-22T00:42:18;13.90;99.90
65074;DHT22;52218;51.224;-2.328;2022-10-22T00:46:00;13.90;99.90
65074;DHT22;52218;51.224;-2.328;2022-10-22T00:49:43;13.90;99.90
65074;DHT22;52218;51.224;-2.328;2022-10-22T00:53:30;13.90;99.90
65074;DHT22;52218;51.224;-2.328;2022-10-22T00:57:15;13.80;99.90
65074;DHT22;52218;51.224;-2.328;2022-10-22T01:00:57;13.80;99.90
65074;DHT22;52218;51.224;-2.328;2022-10-22T01:04:40;13.80;99.90
65074;DHT22;52218;51.224;-2.328;2022-10-22T01:08:33;13.80;99.90
65074;DHT22;52218;51.224;-2.328;2022-10-22T01:24:32;14.00;99.90
65074;DHT22;52218;51.224;-2.328;2022-10-22T01:32:49;14.00;99.90
65074;DHT22;52218;51.224;-2.328;2022-10-22T01:36:33;14.00;99.90
65074;DHT22;52218;51.224;-2.328;2022-10-22T01:40:17;13.90;99.90
65074;DHT22;52218;51.224;-2.328;2022-10-22T01:43:59;13.90;99.90
65074;DHT22;52218;51.224;-2.328;2022-10-22T01:52:09;13.90;99.90
65074;DHT22;52218;51.224;-2.328;2022-10-22T01:56:14;13.90;99.90
65074;DHT22;52218;51.224;-2.328;2022-10-22T01:59:59;13.80;99.90
65074;DHT22;52218;51.224;-2.328;2022-10-22T02:04:10;13.80;99.90
65074;DHT22;52218;51.224;-2.328;2022-10-22T02:08:05;13.70;99.90
65074;DHT22;52218;51.224;-2.328;2022-10-22T02:11:49;13.70;99.90
65074;DHT22;52218;51.224;-2.328;2022-10-22T02:15:36;13.60;99.90
65074;DHT22;52218;51.224;-2.328;2022-10-22T02:19:24;13.50;99.90
65074;DHT22;52218;51.224;-2.328;2022-10-22T02:23:07;13.40;99.90
65074;DHT22;52218;51.224;-2.328;2022-10-22T02:30:56;13.20;99.90
65074;DHT22;52218;51.224;-2.328;2022-10-22T02:34:40;13.20;99.90
65074;DHT22;52218;51.224;-2.328;2022-10-22T02:38:24;13.10;99.90
65074;DHT22;52218;51.224;-2.328;2022-10-22T02:42:08;13.00;99.90
65074;DHT22;52218;51.224;-2.328;2022-10-22T02:45:50;12.90;99.90
65074;DHT22;52218;51.224;-2.328;2022-10-22T02:49:32;12.80;99.90
65074;DHT22;52218;51.224;-2.328;2022-10-22T02:53:14;12.80;99.90
65074;DHT22;52218;51.224;-2.328;2022-10-22T02:56:56;12.70;99.90
65074;DHT22;52218;51.224;-2.328;2022-10-22T03:00:38;12.60;99.90
65074;DHT22;52218;51.224;-2.328;2022-10-22T03:04:20;12.50;99.90
65074;DHT22;52218;51.224;-2.328;2022-10-22T03:08:02;12.50;99.90
65074;DHT22;52218;51.224;-2.328;2022-10-22T03:11:44;12.50;99.90
65074;DHT22;52218;51.224;-2.328;2022-10-22T03:15:25;12.40;99.90
65074;DHT22;52218;51.224;-2.328;2022-10-22T03:19:08;12.30;99.90
65074;DHT22;52218;51.224;-2.328;2022-10-22T03:22:51;12.30;99.90
65074;DHT22;52218;51.224;-2.328;2022-10-22T03:26:33;12.20;99.90
65074;DHT22;52218;51.224;-2.328;2022-10-22T03:30:15;12.10;99.90
65074;DHT22;52218;51.224;-2.328;2022-10-22T03:33:57;12.10;99.90
65074;DHT22;52218;51.224;-2.328;2022-10-22T03:37:39;12.00;99.90
65074;DHT22;52218;51.224;-2.328;2022-10-22T03:41:21;11.90;99.90
65074;DHT22;52218;51.224;-2.328;2022-10-22T03:45:04;11.90;99.90
65074;DHT22;52218;51.224;-2.328;2022-10-22T03:48:46;11.80;99.90
65074;DHT22;52218;51.224;-2.328;2022-10-22T03:52:37;11.70;99.90
65074;DHT22;52218;51.224;-2.328;2022-10-22T03:56:20;11.70;99.90
65074;DHT22;52218;51.224;-2.328;2022-10-22T04:00:03;11.60;99.90
65074;DHT22;52218;51.224;-2.328;2022-10-22T04:03:46;11.50;99.90
65074;DHT22;52218;51.224;-2.328;2022-10-22T04:07:28;11.40;99.90
65074;DHT22;52218;51.224;-2.328;2022-10-22T04:11:11;11.40;99.90
65074;DHT22;52218;51.224;-2.328;2022-10-22T04:14:53;11.30;99.90
65074;DHT22;52218;51.224;-2.328;2022-10-22T04:18:36;11.20;99.90
65074;DHT22;52218;51.224;-2.328;2022-10-22T04:22:18;11.20;99.90
65074;DHT22;52218;51.224;-2.328;2022-10-22T04:26:02;11.10;99.90
65074;DHT22;52218;51.224;-2.328;2022-10-22T04:29:44;11.00;99.90
65074;DHT22;52218;51.224;-2.328;2022-10-22T04:33:26;11.00;99.90
65074;DHT22;52218;51.224;-2.328;2022-10-22T04:37:08;10.90;99.90
65074;DHT22;52218;51.224;-2.328;2022-10-22T04:40:49;10.90;99.90
65074;DHT22;52218;51.224;-2.328;2022-10-22T04:44:33;10.90;99.90
65074;DHT22;52218;51.224;-2.328;2022-10-22T04:48:15;10.90;99.90
65074;DHT22;52218;51.224;-2.328;2022-10-22T04:51:57;10.90;99.90
65074;DHT22;52218;51.224;-2.328;2022-10-22T04:55:39;10.90;99.90
65074;DHT22;52218;51.224;-2.328;2022-10-22T04:59:20;10.90;99.90
65074;DHT22;52218;51.224;-2.328;2022-10-22T05:03:02;10.90;99.90
65074;DHT22;52218;51.224;-2.328;2022-10-22T05:06:45;10.90;99.90
65074;DHT22;52218;51.224;-2.328;2022-10-22T05:10:27;10.90;99.90
65074;DHT22;52218;51.224;-2.328;2022-10-22T05:14:09;10.80;99.90
65074;DHT22;52218;51.224;-2.328;2022-10-22T05:17:51;10.80;99.90
65074;DHT22;52218;51.224;-2.328;2022-10-22T05:21:34;10.80;99.90
65074;DHT22;52218;51.224;-2.328;2022-10-22T05:25:16;10.80;99.90
65074;DHT22;52218;51.224;-2.328;2022-10-22T05:28:57;10.80;99.90
65074;DHT22;52218;51.224;-2.328;2022-10-22T05:32:39;10.80;99.90
65074;DHT22;52218;51.224;-2.328;2022-10-22T05:36:22;10.80;99.90
65074;DHT22;52218;51.224;-2.328;2022-10-22T05:40:04;10.80;99.90
65074;DHT22;52218;51.224;-2.328;2022-10-22T05:44:06;10.80;99.90
65074;DHT22;52218;51.224;-2.328;2022-10-22T05:47:48;10.80;99.90
65074;DHT22;52218;51.224;-2.328;2022-10-22T05:51:32;10.80;99.90
65074;DHT22;52218;51.224;-2.328;2022-10-22T05:55:14;10.80;99.90
65074;DHT22;52218;51.224;-2.328;2022-10-22T05:58:57;10.80;99.90
65074;DHT22;52218;51.224;-2.328;2022-10-22T06:02:39;10.80;99.90
65074;DHT22;52218;51.224;-2.328;2022-10-22T06:06:44;10.80;99.90
65074;DHT22;52218;51.224;-2.328;2022-10-22T06:10:27;10.90;99.90
65074;DHT22;52218;51.224;-2.328;2022-10-22T06:14:09;10.90;99.90
65074;DHT22;52218;51.224;-2.328;2022-10-22T06:17:51;10.90;99.90
65074;DHT22;52218;51.224;-2.328;2022-10-22T06:21:33;10.90;99.90
65074;DHT22;52218;51.224;-2.328;2022-10-22T06:25:15;10.90;99.90
65074;DHT22;52218;51.224;-2.328;2022-10-22T06:28:57;10.90;99.90
65074;DHT22;52218;51.224;-2.328;2022-10-22T06:32:39;10.80;99.90
65074;DHT22;52218;51.224;-2.328;2022-10-22T06:36:23;10.80;99.90
65074;DHT22;52218;51.224;-2.328;2022-10-22T06:40:05;10.80;99.90
65074;DHT22;52218;51.224;-2.328;2022-10-22T06:43:47;10.80;99.90
65074;DHT22;52218;51.224;-2.328;2022-10-22T06:47:29;10.80;99.90
65074;DHT22;52218;51.224;-2.328;2022-10-22T06:51:13;10.70;99.90
65074;DHT22;52218;51.224;-2.328;2022-10-22T06:54:55;10.70;99.90
65074;DHT22;52218;51.224;-2.328;2022-10-22T06:58:37;10.70;99.90
65074;DHT22;52218;51.224;-2.328;2022-10-22T07:02:19;10.80;99.90
65074;DHT22;52218;51.224;-2.328;2022-10-22T07:06:03;10.80;99.90
65074;DHT22;52218;51.224;-2.328;2022-10-22T07:09:45;10.70;99.90
65074;DHT22;52218;51.224;-2.328;2022-10-22T07:13:32;10.70;99.90
65074;DHT22;52218;51.224;-2.328;2022-10-22T07:17:14;10.70;99.90
65074;DHT22;52218;51.224;-2.328;2022-10-22T07:20:56;10.70;99.90
65074;DHT22;52218;51.224;-2.328;2022-10-22T07:24:38;10.70;99.90
65074;DHT22;52218;51.224;-2.328;2022-10-22T07:28:20;10.70;99.90
65074;DHT22;52218;51.224;-2.328;2022-10-22T07:32:02;10.70;99.90
65074;DHT22;52218;51.224;-2.328;2022-10-22T07:35:44;10.80;99.90
65074;DHT22;52218;51.224;-2.328;2022-10-22T07:39:26;10.90;99.90
65074;DHT22;52218;51.224;-2.328;2022-10-22T07:43:08;10.90;99.90
65074;DHT22;52218;51.224;-2.328;2022-10-22T07:46:50;11.00;99.90
65074;DHT22;52218;51.224;-2.328;2022-10-22T07:50:32;11.10;99.90
65074;DHT22;52218;51.224;-2.328;2022-10-22T07:54:14;11.20;99.90
65074;DHT22;52218;51.224;-2.328;2022-10-22T07:57:57;11.30;99.90
65074;DHT22;52218;51.224;-2.328;2022-10-22T08:01:39;11.40;99.90
65074;DHT22;52218;51.224;-2.328;2022-10-22T08:05:21;11.40;99.90
65074;DHT22;52218;51.224;-2.328;2022-10-22T08:09:03;11.60;99.90
65074;DHT22;52218;51.224;-2.328;2022-10-22T08:12:45;11.70;99.90
65074;DHT22;52218;51.224;-2.328;2022-10-22T08:16:28;11.80;99.90
65074;DHT22;52218;51.224;-2.328;2022-10-22T08:20:10;11.90;99.90
65074;DHT22;52218;51.224;-2.328;2022-10-22T08:23:52;12.00;99.90
65074;DHT22;52218;51.224;-2.328;2022-10-22T08:27:35;12.10;99.90
65074;DHT22;52218;51.224;-2.328;2022-10-22T08:31:17;12.20;99.90
65074;DHT22;52218;51.224;-2.328;2022-10-22T08:34:58;12.30;99.90
65074;DHT22;52218;51.224;-2.328;2022-10-22T08:38:40;12.50;99.90
65074;DHT22;52218;51.224;-2.328;2022-10-22T08:47:15;12.80;99.90
65074;DHT22;52218;51.224;-2.328;2022-10-22T08:51:03;13.00;99.90
65074;DHT22;52218;51.224;-2.328;2022-10-22T08:58:48;13.30;99.90
65074;DHT22;52218;51.224;-2.328;2022-10-22T09:02:36;13.50;99.90
65074;DHT22;52218;51.224;-2.328;2022-10-22T09:06:24;13.60;99.90
65074;DHT22;52218;51.224;-2.328;2022-10-22T09:10:09;13.70;99.90
65074;DHT22;52218;51.224;-2.328;2022-10-22T09:13:53;13.80;99.90
65074;DHT22;52218;51.224;-2.328;2022-10-22T09:21:55;14.00;99.90
65074;DHT22;52218;51.224;-2.328;2022-10-22T09:25:39;14.10;99.90
65074;DHT22;52218;51.224;-2.328;2022-10-22T09:29:26;14.30;99.90
65074;DHT22;52218;51.224;-2.328;2022-10-22T09:36:59;14.50;99.90
65074;DHT22;52218;51.224;-2.328;2022-10-22T09:40:53;14.70;99.90
65074;DHT22;52218;51.224;-2.328;2022-10-22T09:44:36;14.80;99.90
65074;DHT22;52218;51.224;-2.328;2022-10-22T09:48:34;14.90;99.90
65074;DHT22;52218;51.224;-2.328;2022-10-22T09:52:27;15.00;99.90
65074;DHT22;52218;51.224;-2.328;2022-10-22T10:00:07;15.20;99.90
65074;DHT22;52218;51.224;-2.328;2022-10-22T10:03:50;15.40;99.90
65074;DHT22;52218;51.224;-2.328;2022-10-22T10:07:33;15.50;99.90
65074;DHT22;52218;51.224;-2.328;2022-10-22T10:15:19;15.90;99.90
65074;DHT22;52218;51.224;-2.328;2022-10-22T10:19:15;16.50;99.90
65074;DHT22;52218;51.224;-2.328;2022-10-22T10:27:35;18.40;99.90
65074;DHT22;52218;51.224;-2.328;2022-10-22T10:31:27;19.50;99.90
65074;DHT22;52218;51.224;-2.328;2022-10-22T10:35:23;19.60;99.90
65074;DHT22;52218;51.224;-2.328;2022-10-22T10:39:22;19.40;99.90
65074;DHT22;52218;51.224;-2.328;2022-10-22T10:43:31;19.20;99.90
65074;DHT22;52218;51.224;-2.328;2022-10-22T10:51:45;19.20;99.90
65074;DHT22;52218;51.224;-2.328;2022-10-22T10:59:51;18.90;99.90
65074;DHT22;52218;51.224;-2.328;2022-10-22T11:07:44;19.40;99.90
65074;DHT22;52218;51.224;-2.328;2022-10-22T11:11:44;20.40;99.90
65074;DHT22;52218;51.224;-2.328;2022-10-22T11:15:32;21.20;99.90
65074;DHT22;52218;51.224;-2.328;2022-10-22T11:19:47;21.30;99.90
65074;DHT22;52218;51.224;-2.328;2022-10-22T11:23:43;20.90;99.90
65074;DHT22;52218;51.224;-2.328;2022-10-22T11:31:56;20.10;99.90
65074;DHT22;52218;51.224;-2.328;2022-10-22T11:35:44;19.90;99.90
65074;DHT22;52218;51.224;-2.328;2022-10-22T11:39:35;19.80;99.90
65074;DHT22;52218;51.224;-2.328;2022-10-22T11:43:30;19.90;99.90
65074;DHT22;52218;51.224;-2.328;2022-10-22T11:47:23;20.00;99.90
65074;DHT22;52218;51.224;-2.328;2022-10-22T11:51:36;19.90;99.90
65074;DHT22;52218;51.224;-2.328;2022-10-22T11:59:37;19.50;99.90
65074;DHT22;52218;51.224;-2.328;2022-10-22T12:04:13;19.40;99.90
65074;DHT22;52218;51.224;-2.328;2022-10-22T12:07:34;19.10;99.90
65074;DHT22;52218;51.224;-2.328;2022-10-22T12:11:35;18.80;99.90
65074;DHT22;52218;51.224;-2.328;2022-10-22T12:15:26;18.50;99.90
65074;DHT22;52218;51.224;-2.328;2022-10-22T12:19:16;18.40;99.90
65074;DHT22;52218;51.224;-2.328;2022-10-22T12:22:58;18.50;99.90
65074;DHT22;52218;51.224;-2.328;2022-10-22T12:26:41;18.80;99.90
65074;DHT22;52218;51.224;-2.328;2022-10-22T12:30:29;19.20;99.90
65074;DHT22;52218;51.224;-2.328;2022-10-22T12:34:16;19.40;99.90
65074;DHT22;52218;51.224;-2.328;2022-10-22T12:38:09;19.70;99.90
65074;DHT22;52218;51.224;-2.328;2022-10-22T12:41:54;19.90;99.90
65074;DHT22;52218;51.224;-2.328;2022-10-22T12:45:36;19.90;99.90
65074;DHT22;52218;51.224;-2.328;2022-10-22T12:49:21;19.80;99.90
65074;DHT22;52218;51.224;-2.328;2022-10-22T12:57:15;19.50;99.90
65074;DHT22;52218;51.224;-2.328;2022-10-22T13:00:58;19.10;99.90
65074;DHT22;52218;51.224;-2.328;2022-10-22T13:05:13;18.90;99.90
65074;DHT22;52218;51.224;-2.328;2022-10-22T13:12:48;18.40;99.90
65074;DHT22;52218;51.224;-2.328;2022-10-22T13:16:31;18.20;99.90
65074;DHT22;52218;51.224;-2.328;2022-10-22T13:20:22;18.10;99.90
65074;DHT22;52218;51.224;-2.328;2022-10-22T13:24:23;18.20;99.90
65074;DHT22;52218;51.224;-2.328;2022-10-22T13:28:18;18.30;99.90
65074;DHT22;52218;51.224;-2.328;2022-10-22T13:32:01;18.30;99.90
65074;DHT22;52218;51.224;-2.328;2022-10-22T13:35:43;18.30;99.90
65074;DHT22;52218;51.224;-2.328;2022-10-22T13:39:25;18.30;99.90
65074;DHT22;52218;51.224;-2.328;2022-10-22T13:43:07;18.30;99.90
65074;DHT22;52218;51.224;-2.328;2022-10-22T13:46:48;18.30;99.90
65074;DHT22;52218;51.224;-2.328;2022-10-22T13:50:31;18.30;99.90
65074;DHT22;52218;51.224;-2.328;2022-10-22T13:54:17;18.30;99.90
65074;DHT22;52218;51.224;-2.328;2022-10-22T13:58:05;18.40;99.90
65074;DHT22;52218;51.224;-2.328;2022-10-22T14:01:47;18.30;99.90
65074;DHT22;52218;51.224;-2.328;2022-10-22T14:05:29;18.20;99.90
65074;DHT22;52218;51.224;-2.328;2022-10-22T14:09:14;18.10;99.90
65074;DHT22;52218;51.224;-2.328;2022-10-22T14:12:56;18.00;99.90
65074;DHT22;52218;51.224;-2.328;2022-10-22T14:16:39;17.90;99.90
65074;DHT22;52218;51.224;-2.328;2022-10-22T14:20:24;17.80;99.90
65074;DHT22;52218;51.224;-2.328;2022-10-22T14:24:09;17.80;99.90
65074;DHT22;52218;51.224;-2.328;2022-10-22T14:27:54;17.70;99.90
65074;DHT22;52218;51.224;-2.328;2022-10-22T14:31:41;17.60;99.90
65074;DHT22;52218;51.224;-2.328;2022-10-22T14:35:25;17.70;99.90
65074;DHT22;52218;51.224;-2.328;2022-10-22T14:39:07;17.70;99.90
65074;DHT22;52218;51.224;-2.328;2022-10-22T14:42:49;17.70;99.90
65074;DHT22;52218;51.224;-2.328;2022-10-22T14:46:32;17.80;99.90
65074;DHT22;52218;51.224;-2.328;2022-10-22T14:50:15;17.90;99.90
65074;DHT22;52218;51.224;-2.328;2022-10-22T14:53:57;18.00;99.90
65074;DHT22;52218;51.224;-2.328;2022-10-22T14:57:39;18.00;99.90
65074;DHT22;52218;51.224;-2.328;2022-10-22T15:01:22;18.00;99.90
65074;DHT22;52218;51.224;-2.328;2022-10-22T15:05:04;17.90;99.90
65074;DHT22;52218;51.224;-2.328;2022-10-22T15:08:46;17.90;99.90
65074;DHT22;52218;51.224;-2.328;2022-10-22T15:12:28;17.80;99.90
65074;DHT22;52218;51.224;-2.328;2022-10-22T15:16:12;17.60;99.90
65074;DHT22;52218;51.224;-2.328;2022-10-22T15:19:55;17.60;99.90
65074;DHT22;52218;51.224;-2.328;2022-10-22T15:23:40;17.50;99.90
65074;DHT22;52218;51.224;-2.328;2022-10-22T15:27:22;17.50;99.90
65074;DHT22;52218;51.224;-2.328;2022-10-22T15:31:05;17.50;99.90
65074;DHT22;52218;51.224;-2.328;2022-10-22T15:34:47;17.50;99.90
65074;DHT22;52218;51.224;-2.328;2022-10-22T15:38:29;17.50;99.90
65074;DHT22;52218;51.224;-2.328;2022-10-22T15:42:17;17.50;99.90
65074;DHT22;52218;51.224;-2.328;2022-10-22T15:46:13;17.60;99.90
65074;DHT22;52218;51.224;-2.328;2022-10-22T15:49:55;17.60;99.90
65074;DHT22;52218;51.224;-2.328;2022-10-22T15:53:38;17.50;99.90
65074;DHT22;52218;51.224;-2.328;2022-10-22T15:57:20;17.50;99.90
65074;DHT22;52218;51.224;-2.328;2022-10-22T16:01:10;17.40;99.90
65074;DHT22;52218;51.224;-2.328;2022-10-22T16:04:52;17.30;99.90
65074;DHT22;52218;51.224;-2.328;2022-10-22T16:08:35;17.20;99.90
65074;DHT22;52218;51.224;-2.328;2022-10-22T16:12:17;17.20;99.90
65074;DHT22;52218;51.224;-2.328;2022-10-22T16:16:04;17.10;99.90
65074;DHT22;52218;51.224;-2.328;2022-10-22T16:19:47;17.10;99.90
65074;DHT22;52218;51.224;-2.328;2022-10-22T16:23:29;17.00;99.90
65074;DHT22;52218;51.224;-2.328;2022-10-22T16:27:11;17.00;99.90
65074;DHT22;52218;51.224;-2.328;2022-10-22T16:30:52;16.90;99.90
65074;DHT22;52218;51.224;-2.328;2022-10-22T16:34:34;16.80;99.90
65074;DHT22;52218;51.224;-2.328;2022-10-22T16:38:16;16.80;99.90
65074;DHT22;52218;51.224;-2.328;2022-10-22T16:41:59;16.70;99.90
65074;DHT22;52218;51.224;-2.328;2022-10-22T16:45:50;16.60;99.90
65074;DHT22;52218;51.224;-2.328;2022-10-22T16:49:32;16.60;99.90
65074;DHT22;52218;51.224;-2.328;2022-10-22T16:53:14;16.50;99.90
65074;DHT22;52218;51.224;-2.328;2022-10-22T16:56:56;16.40;99.90
65074;DHT22;52218;51.224;-2.328;2022-10-22T17:00:38;16.40;99.90
65074;DHT22;52218;51.224;-2.328;2022-10-22T17:04:20;16.40;99.90
65074;DHT22;52218;51.224;-2.328;2022-10-22T17:08:03;16.40;99.90
65074;DHT22;52218;51.224;-2.328;2022-10-22T17:11:45;16.30;99.90
65074;DHT22;52218;51.224;-2.328;2022-10-22T17:15:28;16.30;99.90
65074;DHT22;52218;51.224;-2.328;2022-10-22T17:19:12;16.20;99.90
65074;DHT22;52218;51.224;-2.328;2022-10-22T17:22:56;16.20;99.90
65074;DHT22;52218;51.224;-2.328;2022-10-22T17:26:38;16.20;99.90
65074;DHT22;52218;51.224;-2.328;2022-10-22T17:30:20;16.20;99.90
65074;DHT22;52218;51.224;-2.328;2022-10-22T17:34:10;16.20;99.90
65074;DHT22;52218;51.224;-2.328;2022-10-22T17:37:55;16.10;99.90
65074;DHT22;52218;51.224;-2.328;2022-10-22T17:41:37;16.00;99.90
65074;DHT22;52218;51.224;-2.328;2022-10-22T17:45:19;16.00;99.90
65074;DHT22;52218;51.224;-2.328;2022-10-22T17:49:03;16.00;99.90
65074;DHT22;52218;51.224;-2.328;2022-10-22T17:52:45;15.90;99.90
65074;DHT22;52218;51.224;-2.328;2022-10-22T17:56:28;15.90;99.90
65074;DHT22;52218;51.224;-2.328;2022-10-22T18:00:12;15.80;99.90
65074;DHT22;52218;51.224;-2.328;2022-10-22T18:03:58;15.80;99.90
65074;DHT22;52218;51.224;-2.328;2022-10-22T18:07:40;15.80;99.90
65074;DHT22;52218;51.224;-2.328;2022-10-22T18:11:25;15.70;99.90
65074;DHT22;52218;51.224;-2.328;2022-10-22T18:15:07;15.70;99.90
65074;DHT22;52218;51.224;-2.328;2022-10-22T18:18:52;15.70;99.90
65074;DHT22;52218;51.224;-2.328;2022-10-22T18:22:34;15.60;99.90
65074;DHT22;52218;51.224;-2.328;2022-10-22T18:26:17;15.60;99.90
65074;DHT22;52218;51.224;-2.328;2022-10-22T18:30:05;15.50;99.90
65074;DHT22;52218;51.224;-2.328;2022-10-22T18:33:47;15.50;99.90
65074;DHT22;52218;51.224;-2.328;2022-10-22T18:37:30;15.50;99.90
65074;DHT22;52218;51.224;-2.328;2022-10-22T18:41:12;15.50;99.90
65074;DHT22;52218;51.224;-2.328;2022-10-22T18:44:54;15.40;99.90
65074;DHT22;52218;51.224;-2.328;2022-10-22T18:48:36;15.40;99.90
65074;DHT22;52218;51.224;-2.328;2022-10-22T18:52:18;15.40;99.90
65074;DHT22;52218;51.224;-2.328;2022-10-22T18:56:00;15.30;99.90
65074;DHT22;52218;51.224;-2.328;2022-10-22T18:59:42;15.30;99.90
65074;DHT22;52218;51.224;-2.328;2022-10-22T19:03:24;15.30;99.90
65074;DHT22;52218;51.224;-2.328;2022-10-22T19:07:06;15.30;99.90
65074;DHT22;52218;51.224;-2.328;2022-10-22T19:10:50;15.30;99.90
65074;DHT22;52218;51.224;-2.328;2022-10-22T19:14:32;15.20;99.90
65074;DHT22;52218;51.224;-2.328;2022-10-22T19:18:14;15.30;99.90
65074;DHT22;52218;51.224;-2.328;2022-10-22T19:21:56;15.20;99.90
65074;DHT22;52218;51.224;-2.328;2022-10-22T19:25:40;15.20;99.90
65074;DHT22;52218;51.224;-2.328;2022-10-22T19:29:22;15.20;99.90
65074;DHT22;52218;51.224;-2.328;2022-10-22T19:33:03;15.20;99.90
65074;DHT22;52218;51.224;-2.328;2022-10-22T19:36:47;15.20;99.90
65074;DHT22;52218;51.224;-2.328;2022-10-22T19:40:32;15.20;99.90
65074;DHT22;52218;51.224;-2.328;2022-10-22T19:44:14;15.20;99.90
65074;DHT22;52218;51.224;-2.328;2022-10-22T19:47:56;15.20;99.90
65074;DHT22;52218;51.224;-2.328;2022-10-22T19:51:38;15.10;99.90
65074;DHT22;52218;51.224;-2.328;2022-10-22T19:55:20;15.10;99.90
65074;DHT22;52218;51.224;-2.328;2022-10-22T19:59:04;15.10;99.90
65074;DHT22;52218;51.224;-2.328;2022-10-22T20:02:46;15.20;99.90
65074;DHT22;52218;51.224;-2.328;2022-10-22T20:06:28;15.10;99.90
65074;DHT22;52218;51.224;-2.328;2022-10-22T20:10:10;15.10;99.90
65074;DHT22;52218;51.224;-2.328;2022-10-22T20:13:53;15.10;99.90
65074;DHT22;52218;51.224;-2.328;2022-10-22T20:17:35;15.10;99.90
65074;DHT22;52218;51.224;-2.328;2022-10-22T20:21:17;15.10;99.90
65074;DHT22;52218;51.224;-2.328;2022-10-22T20:25:03;15.20;99.90
65074;DHT22;52218;51.224;-2.328;2022-10-22T20:28:45;15.10;99.90
65074;DHT22;52218;51.224;-2.328;2022-10-22T20:32:27;15.20;99.90
65074;DHT22;52218;51.224;-2.328;2022-10-22T20:36:14;15.20;99.90
65074;DHT22;52218;51.224;-2.328;2022-10-22T20:39:57;15.20;99.90
65074;DHT22;52218;51.224;-2.328;2022-10-22T20:43:39;15.20;99.90
65074;DHT22;52218;51.224;-2.328;2022-10-22T20:47:20;15.30;99.90
65074;DHT22;52218;51.224;-2.328;2022-10-22T20:51:11;15.30;99.90
65074;DHT22;52218;51.224;-2.328;2022-10-22T20:54:53;15.30;99.90
65074;DHT22;52218;51.224;-2.328;2022-10-22T20:58:36;15.20;99.90
65074;DHT22;52218;51.224;-2.328;2022-10-22T21:02:18;15.20;99.90
65074;DHT22;52218;51.224;-2.328;2022-10-22T21:06:01;15.20;99.90
65074;DHT22;52218;51.224;-2.328;2022-10-22T21:09:43;15.20;99.90
65074;DHT22;52218;51.224;-2.328;2022-10-22T21:13:24;15.20;99.90
65074;DHT22;52218;51.224;-2.328;2022-10-22T21:17:06;15.20;99.90
65074;DHT22;52218;51.224;-2.328;2022-10-22T21:20:48;15.20;99.90
65074;DHT22;52218;51.224;-2.328;2022-10-22T21:24:30;15.30;99.90
65074;DHT22;52218;51.224;-2.328;2022-10-22T21:28:12;15.30;99.90
65074;DHT22;52218;51.224;-2.328;2022-10-22T21:31:54;15.20;99.90
65074;DHT22;52218;51.224;-2.328;2022-10-22T21:35:36;15.20;99.90
65074;DHT22;52218;51.224;-2.328;2022-10-22T21:39:18;15.20;99.90
65074;DHT22;52218;51.224;-2.328;2022-10-22T21:42:59;15.10;99.90
65074;DHT22;52218;51.224;-2.328;2022-10-22T21:46:41;15.10;99.90
65074;DHT22;52218;51.224;-2.328;2022-10-22T21:50:23;15.00;99.90
65074;DHT22;52218;51.224;-2.328;2022-10-22T21:54:05;15.00;99.90
65074;DHT22;52218;51.224;-2.328;2022-10-22T21:57:47;14.90;99.90
65074;DHT22;52218;51.224;-2.328;2022-10-22T22:01:29;14.80;99.90
65074;DHT22;52218;51.224;-2.328;2022-10-22T22:05:11;14.80;99.90
65074;DHT22;52218;51.224;-2.328;2022-10-22T22:08:54;14.80;99.90
65074;DHT22;52218;51.224;-2.328;2022-10-22T22:12:36;14.80;99.90
65074;DHT22;52218;51.224;-2.328;2022-10-22T22:16:26;14.70;99.90
65074;DHT22;52218;51.224;-2.328;2022-10-22T22:20:09;14.80;99.90
65074;DHT22;52218;51.224;-2.328;2022-10-22T22:23:52;14.70;99.90
65074;DHT22;52218;51.224;-2.328;2022-10-22T22:27:34;14.70;99.90
65074;DHT22;52218;51.224;-2.328;2022-10-22T22:31:21;14.70;99.90
65074;DHT22;52218;51.224;-2.328;2022-10-22T22:35:03;14.70;99.90
65074;DHT22;52218;51.224;-2.328;2022-10-22T22:38:45;14.80;99.90
65074;DHT22;52218;51.224;-2.328;2022-10-22T22:42:27;14.70;99.90
65074;DHT22;52218;51.224;-2.328;2022-10-22T22:46:10;14.80;99.90
65074;DHT22;52218;51.224;-2.328;2022-10-22T22:49:53;14.80;99.90
65074;DHT22;52218;51.224;-2.328;2022-10-22T22:53:34;14.80;99.90
65074;DHT22;52218;51.224;-2.328;2022-10-22T22:57:16;14.80;99.90
65074;DHT22;52218;51.224;-2.328;2022-10-22T23:04:57;14.80;99.90
65074;DHT22;52218;51.224;-2.328;2022-10-22T23:08:39;14.80;99.90
65074;DHT22;52218;51.224;-2.328;2022-10-22T23:12:21;14.90;99.90
65074;DHT22;52218;51.224;-2.328;2022-10-22T23:16:15;14.90;99.90
65074;DHT22;52218;51.224;-2.328;2022-10-22T23:19:57;14.90;99.90
65074;DHT22;52218;51.224;-2.328;2022-10-22T23:23:44;14.90;99.90
65074;DHT22;52218;51.224;-2.328;2022-10-22T23:27:26;14.90;99.90
65074;DHT22;52218;51.224;-2.328;2022-10-22T23:31:13;14.90;99.90
65074;DHT22;52218;51.224;-2.328;2022-10-22T23:34:55;14.90;99.90
65074;DHT22;52218;51.224;-2.328;2022-10-22T23:38:39;14.90;99.90
65074;DHT22;52218;51.224;-2.328;2022-10-22T23:42:21;14.90;99.90
65074;DHT22;52218;51.224;-2.328;2022-10-22T23:46:05;14.90;99.90
65074;DHT22;52218;51.224;-2.328;2022-10-22T23:49:47;14.90;99.90
65074;DHT22;52218;51.224;-2.328;2022-10-22T23:53:29;14.90;99.90
65074;DHT22;52218;51.224;-2.328;2022-10-22T23:57:11;14.90;99.90
